createdAt,value
2023-03-31T00:00:58.299Z,1.63
2023-03-31T00:03:25.667Z,1.38
2023-03-31T00:05:59.637Z,1.60
2023-03-31T00:08:30.869Z,1.90
2023-03-31T00:11:02.405Z,2.08
2023-03-31T00:13:33.689Z,2.22
2023-03-31T00:16:09.441Z,1.90
2023-03-31T00:18:37.626Z,2.00
2023-03-31T00:21:29.748Z,2.25
2023-03-31T00:23:59.498Z,2.33
2023-03-31T00:26:28.185Z,2.03
2023-03-31T00:28:56.177Z,1.77
2023-03-31T00:31:24.089Z,1.95
2023-03-31T00:33:51.359Z,1.60
2023-03-31T00:36:21.801Z,1.83
2023-03-31T00:38:49.243Z,1.55
2023-03-31T00:41:16.375Z,1.55
2023-03-31T00:44:01.480Z,1.52
2023-03-31T00:49:02.685Z,1.50
2023-03-31T00:51:34.200Z,1.83
2023-03-31T00:54:06.293Z,1.83
2023-03-31T00:56:39.994Z,1.50
2023-03-31T00:59:11.310Z,1.92
2023-03-31T01:01:43.119Z,1.63
2023-03-31T01:04:12.883Z,1.55
2023-03-31T01:07:12.645Z,1.45
2023-03-31T01:09:40.050Z,1.60
2023-03-31T01:12:09.904Z,1.63
2023-03-31T01:14:36.952Z,1.92
2023-03-31T01:17:05.435Z,1.92
2023-03-31T01:19:53.182Z,1.75
2023-03-31T01:22:50.899Z,2.17
2023-03-31T01:25:38.802Z,1.60
2023-03-31T01:28:32.225Z,2.20
2023-03-31T01:31:05.603Z,1.75
2023-03-31T01:34:11.571Z,1.98
2023-03-31T01:37:16.603Z,2.15
2023-03-31T01:40:10.059Z,1.67
2023-03-31T01:42:52.068Z,2.15
2023-03-31T01:45:40.711Z,1.65
2023-03-31T01:48:18.332Z,1.80
2023-03-31T01:50:50.127Z,1.55
2023-03-31T01:53:57.708Z,1.60
2023-03-31T01:56:37.574Z,2.85
2023-03-31T01:59:36.324Z,1.83
2023-03-31T02:02:11.417Z,1.77
2023-03-31T02:05:11.084Z,1.60
2023-03-31T02:07:51.224Z,1.55
2023-03-31T02:10:19.951Z,1.50
2023-03-31T02:12:48.884Z,1.73
2023-03-31T02:15:22.405Z,2.40
2023-03-31T02:17:55.647Z,1.73
2023-03-31T02:20:23.675Z,1.55
2023-03-31T02:22:54.867Z,1.73
2023-03-31T02:25:29.047Z,1.45
2023-03-31T02:28:02.624Z,1.50
2023-03-31T02:30:51.854Z,1.58
2023-03-31T02:33:19.434Z,1.90
2023-03-31T02:35:46.613Z,1.90
2023-03-31T02:38:14.231Z,1.70
2023-03-31T02:40:41.774Z,1.70
2023-03-31T02:43:08.874Z,1.63
2023-03-31T02:45:39.355Z,2.20
2023-03-31T02:48:10.091Z,1.70
2023-03-31T02:51:02.858Z,2.97
2023-03-31T02:53:48.921Z,2.53
2023-03-31T02:56:31.134Z,1.30
2023-03-31T02:59:25.926Z,1.75
2023-03-31T03:02:05.108Z,2.03
2023-03-31T03:05:01.550Z,1.60
2023-03-31T03:07:38.963Z,2.20
2023-03-31T03:10:16.252Z,1.50
2023-03-31T03:13:17.551Z,1.90
2023-03-31T03:16:21.925Z,1.52
2023-03-31T03:19:00.172Z,2.28
2023-03-31T03:21:28.116Z,1.70
2023-03-31T03:23:55.499Z,1.70
2023-03-31T03:26:24.597Z,1.58
2023-03-31T03:28:51.978Z,2.13
2023-03-31T03:31:19.767Z,2.67
2023-03-31T03:33:47.001Z,1.92
2023-03-31T03:36:14.125Z,3.20
2023-03-31T03:38:41.327Z,1.80
2023-03-31T03:41:08.735Z,2.05
2023-03-31T03:43:36.024Z,1.30
2023-03-31T03:46:03.061Z,1.90
2023-03-31T03:48:30.247Z,1.90
2023-03-31T03:51:00.543Z,2.33
2023-03-31T03:53:27.693Z,1.88
2023-03-31T03:55:54.678Z,4.30
2023-03-31T03:58:21.643Z,1.60
2023-03-31T04:00:48.998Z,3.15
2023-03-31T04:03:16.690Z,1.58
2023-03-31T04:05:43.792Z,2.40
2023-03-31T04:08:10.975Z,2.10
2023-03-31T04:10:38.035Z,4.40
2023-03-31T04:13:04.959Z,2.25
2023-03-31T04:15:32.040Z,3.70
2023-03-31T04:17:59.004Z,2.35
2023-03-31T04:20:30.820Z,3.13
2023-03-31T04:22:58.031Z,2.60
2023-03-31T04:25:25.044Z,4.75
2023-03-31T04:27:55.454Z,1.80
2023-03-31T04:30:23.393Z,2.05
2023-03-31T04:32:55.778Z,2.38
2023-03-31T04:35:25.207Z,4.72
2023-03-31T04:37:59.257Z,3.47
2023-03-31T04:40:26.910Z,3.75
2023-03-31T04:42:53.944Z,1.80
2023-03-31T04:45:20.975Z,3.00
2023-03-31T04:47:47.930Z,1.40
2023-03-31T04:50:17.170Z,1.88
2023-03-31T04:52:44.921Z,2.10
2023-03-31T04:55:12.117Z,1.30
2023-03-31T04:57:39.135Z,3.50
2023-03-31T05:00:11.220Z,7.03
2023-03-31T05:02:38.293Z,5.75
2023-03-31T05:05:06.241Z,2.25
2023-03-31T05:07:33.272Z,4.88
2023-03-31T05:10:00.473Z,2.92
2023-03-31T05:12:27.601Z,5.32
2023-03-31T05:14:54.716Z,3.03
2023-03-31T05:17:22.420Z,2.20
2023-03-31T05:19:49.537Z,1.95
2023-03-31T05:22:20.657Z,2.72
2023-03-31T05:24:47.975Z,5.03
2023-03-31T05:27:16.219Z,1.10
2023-03-31T05:29:44.108Z,4.35
2023-03-31T05:32:11.161Z,1.83
2023-03-31T05:34:38.203Z,5.78
2023-03-31T05:37:05.556Z,3.45
2023-03-31T05:39:34.191Z,2.60
2023-03-31T05:42:01.217Z,2.00
2023-03-31T05:44:28.243Z,5.13
2023-03-31T05:46:55.352Z,2.08
2023-03-31T05:49:22.485Z,44.05
2023-03-31T05:51:49.506Z,29.23
2023-03-31T05:54:16.556Z,26.40
2023-03-31T05:56:43.624Z,17.13
2023-03-31T05:59:10.865Z,6.80
2023-03-31T06:01:38.025Z,3.17
2023-03-31T06:04:05.071Z,4.32
2023-03-31T06:06:34.757Z,3.42
2023-03-31T06:09:07.492Z,2.03
2023-03-31T06:11:34.750Z,2.03
2023-03-31T06:14:01.941Z,2.00
2023-03-31T06:16:29.595Z,1.83
2023-03-31T06:18:57.023Z,2.33
2023-03-31T06:21:24.079Z,1.95
2023-03-31T06:23:55.332Z,1.60
2023-03-31T06:26:22.991Z,2.10
2023-03-31T06:28:50.166Z,1.95
2023-03-31T06:31:19.940Z,2.25
2023-03-31T06:33:47.673Z,1.65
2023-03-31T06:36:17.395Z,1.55
2023-03-31T06:38:45.079Z,1.60
2023-03-31T06:41:14.696Z,1.63
2023-03-31T06:43:42.026Z,1.52
2023-03-31T06:46:09.516Z,1.70
2023-03-31T06:48:37.234Z,1.73
2023-03-31T06:51:06.310Z,2.10
2023-03-31T06:53:34.597Z,1.40
2023-03-31T06:56:01.729Z,1.45
2023-03-31T06:58:31.332Z,2.33
2023-03-31T07:00:59.266Z,1.63
2023-03-31T07:03:26.525Z,3.40
2023-03-31T07:05:55.509Z,1.30
2023-03-31T07:08:23.772Z,1.20
2023-03-31T07:11:00.213Z,1.50
2023-03-31T07:13:28.412Z,1.80
2023-03-31T07:15:56.532Z,1.83
2023-03-31T07:18:35.127Z,1.45
2023-03-31T07:21:05.768Z,1.58
2023-03-31T07:23:35.986Z,1.52
2023-03-31T07:26:03.524Z,2.13
2023-03-31T07:28:31.362Z,1.92
2023-03-31T07:30:58.521Z,1.70
2023-03-31T07:33:25.708Z,1.10
2023-03-31T07:36:07.811Z,2.95
2023-03-31T07:38:38.789Z,2.63
2023-03-31T07:41:09.691Z,2.33
2023-03-31T07:43:37.419Z,1.40
2023-03-31T07:46:05.930Z,1.80
2023-03-31T07:48:33.971Z,2.38
2023-03-31T07:51:01.122Z,1.85
2023-03-31T07:53:33.264Z,1.92
2023-03-31T07:56:00.456Z,2.40
2023-03-31T07:58:27.560Z,1.55
2023-03-31T08:00:54.592Z,1.70
2023-03-31T08:03:21.758Z,1.40
2023-03-31T08:05:52.574Z,1.50
2023-03-31T08:08:19.748Z,1.40
2023-03-31T08:10:47.711Z,1.80
2023-03-31T08:13:14.915Z,2.55
2023-03-31T08:15:41.959Z,1.75
2023-03-31T08:18:09.203Z,1.70
2023-03-31T08:20:36.763Z,1.85
2023-03-31T08:23:05.585Z,1.95
2023-03-31T08:25:32.616Z,1.95
2023-03-31T08:27:59.564Z,2.58
2023-03-31T08:30:26.634Z,3.40
2023-03-31T08:32:53.657Z,1.70
2023-03-31T08:35:20.847Z,2.22
2023-03-31T08:37:47.983Z,1.88
2023-03-31T08:40:20.975Z,1.90
2023-03-31T08:42:53.986Z,2.20
2023-03-31T08:45:26.503Z,1.98
2023-03-31T08:48:04.583Z,1.70
2023-03-31T08:50:35.802Z,2.25
2023-03-31T08:53:12.714Z,1.55
2023-03-31T08:55:52.198Z,1.65
2023-03-31T08:58:28.095Z,1.20
2023-03-31T09:01:17.173Z,1.63
2023-03-31T09:03:50.849Z,1.45
2023-03-31T09:06:34.993Z,1.55
2023-03-31T09:09:03.810Z,1.55
2023-03-31T09:11:40.579Z,1.20
2023-03-31T09:14:38.320Z,1.65
2023-03-31T09:17:17.433Z,2.63
2023-03-31T09:20:05.428Z,2.22
2023-03-31T09:22:37.116Z,1.15
2023-03-31T09:25:07.783Z,1.50
2023-03-31T09:27:37.615Z,2.00
2023-03-31T09:30:10.836Z,1.25
2023-03-31T09:32:39.687Z,2.78
2023-03-31T09:35:22.328Z,1.85
2023-03-31T09:37:50.498Z,1.75
2023-03-31T09:40:21.120Z,1.33
2023-03-31T09:42:54.662Z,1.40
2023-03-31T09:45:21.866Z,1.98
2023-03-31T09:47:55.141Z,1.95
2023-03-31T09:50:25.325Z,1.58
2023-03-31T09:52:56.663Z,3.45
2023-03-31T09:56:01.703Z,2.25
2023-03-31T09:58:28.824Z,5.78
2023-03-31T10:01:02.828Z,1.80
2023-03-31T10:03:36.816Z,2.53
2023-03-31T10:06:12.036Z,1.15
2023-03-31T10:11:11.583Z,1.38
2023-03-31T10:13:53.311Z,1.13
2023-03-31T10:16:33.405Z,1.23
2023-03-31T10:19:34.588Z,1.83
2023-03-31T10:22:07.414Z,1.90
2023-03-31T10:24:45.622Z,1.80
2023-03-31T10:27:19.879Z,1.40
2023-03-31T10:29:47.618Z,1.23
2023-03-31T10:32:23.263Z,1.65
2023-03-31T10:34:50.803Z,2.15
2023-03-31T10:37:22.664Z,1.58
2023-03-31T10:39:59.212Z,2.03
2023-03-31T10:42:27.931Z,1.27
2023-03-31T10:45:11.372Z,1.30
2023-03-31T10:47:40.018Z,1.42
2023-03-31T10:50:17.089Z,2.20
2023-03-31T10:52:47.599Z,1.73
2023-03-31T10:55:30.559Z,1.70
2023-03-31T10:58:21.212Z,2.17
2023-03-31T11:01:14.707Z,1.80
2023-03-31T11:03:57.331Z,2.00
2023-03-31T11:06:44.974Z,2.00
2023-03-31T11:09:37.174Z,1.73
2023-03-31T11:12:24.791Z,2.53
2023-03-31T11:14:59.386Z,2.25
2023-03-31T11:17:32.078Z,2.50
2023-03-31T11:20:15.089Z,2.05
2023-03-31T11:22:59.221Z,2.50
2023-03-31T11:25:32.042Z,2.25
2023-03-31T11:28:34.496Z,2.10
2023-03-31T11:31:22.391Z,2.33
2023-03-31T11:34:08.216Z,2.78
2023-03-31T11:36:38.040Z,2.08
2023-03-31T11:39:40.457Z,2.08
2023-03-31T11:42:16.103Z,2.78
2023-03-31T11:44:53.131Z,2.08
2023-03-31T11:47:24.685Z,2.30
2023-03-31T11:49:53.442Z,2.40
2023-03-31T11:52:43.777Z,2.50
2023-03-31T11:55:23.011Z,2.90
2023-03-31T11:58:02.839Z,2.17
2023-03-31T12:00:38.960Z,2.33
2023-03-31T12:03:23.410Z,2.05
2023-03-31T12:05:59.911Z,2.35
2023-03-31T12:08:31.218Z,2.60
2023-03-31T12:11:09.751Z,2.35
2023-03-31T12:13:41.514Z,2.13
2023-03-31T12:16:11.814Z,2.35
2023-03-31T12:19:03.385Z,2.00
2023-03-31T12:21:32.985Z,2.40
2023-03-31T12:24:00.012Z,2.13
2023-03-31T12:26:43.026Z,2.97
2023-03-31T12:29:47.202Z,2.42
2023-03-31T12:32:21.641Z,3.67
2023-03-31T12:34:57.137Z,2.55
2023-03-31T12:37:50.098Z,2.38
2023-03-31T12:40:52.920Z,2.40
2023-03-31T12:43:52.788Z,1.90
2023-03-31T12:46:47.571Z,2.30
2023-03-31T12:49:39.253Z,2.10
2023-03-31T12:52:12.976Z,2.15
2023-03-31T12:55:04.399Z,2.63
2023-03-31T12:57:31.703Z,7.38
2023-03-31T13:00:21.188Z,2.70
2023-03-31T13:02:49.641Z,1.58
2023-03-31T13:05:38.724Z,1.80
2023-03-31T13:08:08.572Z,2.40
2023-03-31T13:11:11.176Z,2.92
2023-03-31T13:13:58.140Z,2.40
2023-03-31T13:16:31.846Z,2.17
2023-03-31T13:18:59.347Z,2.45
2023-03-31T13:21:26.898Z,2.28
2023-03-31T13:23:54.242Z,1.90
2023-03-31T13:26:41.862Z,2.60
2023-03-31T13:29:14.926Z,2.10
2023-03-31T13:32:04.040Z,2.70
2023-03-31T13:34:35.249Z,2.92
2023-03-31T13:37:45.591Z,2.22
2023-03-31T13:40:40.132Z,5.70
2023-03-31T13:43:28.335Z,2.20
2023-03-31T13:45:58.066Z,2.40
2023-03-31T13:48:36.520Z,2.35
2023-03-31T13:51:26.947Z,4.00
2023-03-31T13:54:12.585Z,1.63
2023-03-31T13:56:39.558Z,3.75
2023-03-31T13:59:15.200Z,2.42
2023-03-31T14:02:24.341Z,3.45
2023-03-31T14:05:00.143Z,2.25
2023-03-31T14:07:44.496Z,2.33
2023-03-31T14:10:39.382Z,2.67
2023-03-31T14:13:10.881Z,2.00
2023-03-31T14:15:42.428Z,3.35
2023-03-31T14:18:15.908Z,3.03
2023-03-31T14:21:13.780Z,5.20
2023-03-31T14:24:13.431Z,4.00
2023-03-31T14:26:52.713Z,2.17
2023-03-31T14:29:28.418Z,3.15
2023-03-31T14:32:32.112Z,1.67
2023-03-31T14:35:29.144Z,2.30
2023-03-31T14:37:57.610Z,1.92
2023-03-31T14:40:25.542Z,2.10
2023-03-31T14:42:52.768Z,1.80
2023-03-31T14:45:25.680Z,1.90
2023-03-31T14:47:56.326Z,1.92
2023-03-31T14:50:30.019Z,5.68
2023-03-31T14:52:57.492Z,2.38
2023-03-31T14:55:35.668Z,2.13
2023-03-31T14:58:22.480Z,2.85
2023-03-31T15:00:49.743Z,2.30
2023-03-31T15:03:17.924Z,1.90
2023-03-31T15:05:48.839Z,2.00
2023-03-31T15:08:22.940Z,2.72
2023-03-31T15:10:58.896Z,1.95
2023-03-31T15:13:36.935Z,2.13
2023-03-31T15:16:20.432Z,2.10
2023-03-31T15:18:48.133Z,3.15
2023-03-31T15:21:27.461Z,2.58
2023-03-31T15:23:58.388Z,2.50
2023-03-31T15:26:51.738Z,2.20
2023-03-31T15:29:44.733Z,2.35
2023-03-31T15:32:21.172Z,2.42
2023-03-31T15:34:50.782Z,2.63
2023-03-31T15:37:27.885Z,2.80
2023-03-31T15:40:00.644Z,9.50
2023-03-31T15:42:29.006Z,4.82
2023-03-31T15:45:14.239Z,2.10
2023-03-31T15:50:16.386Z,2.60
2023-03-31T15:52:53.294Z,2.15
2023-03-31T15:55:26.871Z,3.53
2023-03-31T15:57:56.057Z,3.63
2023-03-31T16:00:32.312Z,1.50
2023-03-31T16:03:06.203Z,3.63
2023-03-31T16:05:53.605Z,2.00
2023-03-31T16:08:50.974Z,4.20
2023-03-31T16:11:23.543Z,2.83
2023-03-31T16:13:54.288Z,3.05
2023-03-31T16:16:23.921Z,2.28
2023-03-31T16:18:55.552Z,1.95
2023-03-31T16:21:26.705Z,2.97
2023-03-31T16:23:57.227Z,1.80
2023-03-31T16:26:27.995Z,1.90
2023-03-31T16:28:57.707Z,3.28
2023-03-31T16:31:36.921Z,2.15
2023-03-31T16:34:09.199Z,1.98
2023-03-31T16:36:38.082Z,1.73
2023-03-31T16:39:06.806Z,1.83
2023-03-31T16:41:35.990Z,1.42
2023-03-31T16:44:03.516Z,2.85
2023-03-31T16:46:30.581Z,2.25
2023-03-31T16:48:57.753Z,2.00
2023-03-31T16:51:24.812Z,1.65
2023-03-31T16:53:51.806Z,2.83
2023-03-31T16:56:19.380Z,1.65
2023-03-31T16:58:46.611Z,2.03
2023-03-31T17:01:13.732Z,1.30
2023-03-31T17:03:42.292Z,3.20
2023-03-31T17:06:12.524Z,3.08
2023-03-31T17:08:40.447Z,2.00
2023-03-31T17:11:11.808Z,1.92
2023-03-31T17:13:41.769Z,1.70
2023-03-31T17:16:19.293Z,2.33
2023-03-31T17:18:57.487Z,1.60
2023-03-31T17:21:24.882Z,1.80
2023-03-31T17:23:51.939Z,1.92
2023-03-31T17:26:19.315Z,1.70
2023-03-31T17:28:46.639Z,2.20
2023-03-31T17:31:15.830Z,2.13
2023-03-31T17:33:43.808Z,1.83
2023-03-31T17:36:11.648Z,1.83
2023-03-31T17:38:40.026Z,1.50
2023-03-31T17:41:10.061Z,1.50
2023-03-31T17:43:38.340Z,1.65
2023-03-31T17:46:13.631Z,2.05
2023-03-31T17:48:41.394Z,1.58
2023-03-31T17:51:12.140Z,1.63
2023-03-31T17:53:40.110Z,2.20
2023-03-31T17:56:07.014Z,1.63
2023-03-31T17:58:34.056Z,1.65
2023-03-31T18:01:01.106Z,1.30
2023-03-31T18:03:29.004Z,1.67
2023-03-31T18:05:56.030Z,1.50
2023-03-31T18:08:23.297Z,2.22
2023-03-31T18:10:50.736Z,1.55
2023-03-31T18:13:17.891Z,1.40
2023-03-31T18:15:54.175Z,2.38
2023-03-31T18:18:23.354Z,1.60
2023-03-31T18:20:50.536Z,1.35
2023-03-31T18:23:17.711Z,1.20
2023-03-31T18:25:48.232Z,1.48
2023-03-31T18:28:17.089Z,1.48
2023-03-31T18:30:44.394Z,1.55
2023-03-31T18:33:13.001Z,1.13
2023-03-31T18:35:40.478Z,1.80
2023-03-31T18:38:07.880Z,1.20
2023-03-31T18:40:34.840Z,1.33
2023-03-31T18:43:02.898Z,1.95
2023-03-31T18:45:30.949Z,2.50
2023-03-31T18:47:58.734Z,2.97
2023-03-31T18:50:26.169Z,1.73
2023-03-31T18:52:54.854Z,1.50
2023-03-31T18:55:22.713Z,1.08
2023-03-31T18:57:50.027Z,1.80
2023-03-31T19:00:17.844Z,1.60
2023-03-31T19:02:45.220Z,1.60
2023-03-31T19:05:12.548Z,1.27
2023-03-31T19:07:40.798Z,1.60
2023-03-31T19:10:08.523Z,1.50
2023-03-31T19:12:35.592Z,3.05
2023-03-31T19:15:02.686Z,1.13
2023-03-31T19:17:29.981Z,1.40
2023-03-31T19:19:57.039Z,1.15
2023-03-31T19:22:25.720Z,1.17
2023-03-31T19:24:53.243Z,1.40
2023-03-31T19:27:20.362Z,1.27
2023-03-31T19:29:47.561Z,1.80
2023-03-31T19:32:14.578Z,1.25
2023-03-31T19:34:42.716Z,1.88
2023-03-31T19:37:10.066Z,1.98
2023-03-31T19:39:37.620Z,1.42
2023-03-31T19:42:04.765Z,2.33
2023-03-31T19:44:31.738Z,1.55
2023-03-31T19:46:58.986Z,1.58
2023-03-31T19:49:27.083Z,3.88
2023-03-31T19:51:56.007Z,6.47
2023-03-31T19:54:23.179Z,2.03
2023-03-31T19:56:50.285Z,7.25
2023-03-31T19:59:17.758Z,1.70
2023-03-31T20:01:44.874Z,2.22
2023-03-31T20:04:14.273Z,3.22
2023-03-31T20:06:41.834Z,2.05
2023-03-31T20:09:16.161Z,3.05
2023-03-31T20:11:43.592Z,3.67
2023-03-31T20:14:11.300Z,2.20
2023-03-31T20:16:38.427Z,3.78
2023-03-31T20:19:08.637Z,2.20
2023-03-31T20:21:37.909Z,2.35
2023-03-31T20:24:15.023Z,4.35
2023-03-31T20:26:42.211Z,2.35
2023-03-31T20:29:11.431Z,2.60
2023-03-31T20:31:40.239Z,2.63
2023-03-31T20:34:14.246Z,2.65
2023-03-31T20:36:43.067Z,8.13
2023-03-31T20:39:11.613Z,2.70
2023-03-31T20:41:38.782Z,2.47
2023-03-31T20:44:07.679Z,1.60
2023-03-31T20:46:34.864Z,2.17
2023-03-31T20:49:02.130Z,1.70
2023-03-31T20:51:31.639Z,2.08
2023-03-31T20:54:00.283Z,8.68
2023-03-31T20:56:33.973Z,3.95
2023-03-31T20:59:02.306Z,4.03
2023-03-31T21:01:32.831Z,12.07
2023-03-31T21:04:01.786Z,8.52
2023-03-31T21:06:32.635Z,4.53
2023-03-31T21:08:59.924Z,2.42
2023-03-31T21:11:32.268Z,1.88
2023-03-31T21:13:59.481Z,2.30
2023-03-31T21:16:27.120Z,1.67
2023-03-31T21:18:58.765Z,2.45
2023-03-31T21:21:27.280Z,1.60
2023-03-31T21:23:54.780Z,2.28
2023-03-31T21:26:22.357Z,2.72
2023-03-31T21:28:51.862Z,9.02
2023-03-31T21:31:19.387Z,3.38
2023-03-31T21:33:47.639Z,4.28
2023-03-31T21:36:17.990Z,1.90
2023-03-31T21:38:45.846Z,2.28
2023-03-31T21:41:15.506Z,2.50
2023-03-31T21:43:43.385Z,2.25
2023-03-31T21:46:17.135Z,2.33
2023-03-31T21:48:44.506Z,2.42
2023-03-31T21:51:12.057Z,1.90
2023-03-31T21:53:39.440Z,1.63
2023-03-31T21:56:06.642Z,2.22
2023-03-31T21:58:33.857Z,1.73
2023-03-31T22:01:04.105Z,4.05
2023-03-31T22:03:34.611Z,1.92
2023-03-31T22:06:03.674Z,2.10
2023-03-31T22:08:31.796Z,2.03
2023-03-31T22:11:00.540Z,2.10
2023-03-31T22:13:28.921Z,6.93
2023-03-31T22:15:57.108Z,13.30
2023-03-31T22:18:24.285Z,9.40
2023-03-31T22:20:51.752Z,7.20
2023-03-31T22:23:21.598Z,3.75
2023-03-31T22:25:49.204Z,5.75
2023-03-31T22:28:17.028Z,2.67
2023-03-31T22:30:44.318Z,2.00
2023-03-31T22:33:11.507Z,1.55
2023-03-31T22:35:38.724Z,2.22
2023-03-31T22:38:06.638Z,2.55
2023-03-31T22:40:35.380Z,2.08
2023-03-31T22:43:02.547Z,2.22
2023-03-31T22:45:29.882Z,1.83
2023-03-31T22:47:57.255Z,2.05
2023-03-31T22:50:24.868Z,3.55
2023-03-31T22:52:52.198Z,1.63
2023-03-31T22:55:19.641Z,1.83
2023-03-31T22:57:46.917Z,2.13
2023-03-31T23:00:14.316Z,1.63
2023-03-31T23:02:42.417Z,1.63
2023-03-31T23:05:14.707Z,1.90
2023-03-31T23:07:41.895Z,4.15
2023-03-31T23:10:09.501Z,2.85
2023-03-31T23:12:36.905Z,2.53
2023-03-31T23:15:04.218Z,1.83
2023-03-31T23:17:31.513Z,1.60
2023-03-31T23:19:58.643Z,3.42
2023-03-31T23:22:25.986Z,1.77
2023-03-31T23:24:53.219Z,1.55
2023-03-31T23:27:20.596Z,1.90
2023-03-31T23:29:47.728Z,2.17
2023-03-31T23:32:14.879Z,2.08
2023-03-31T23:34:42.539Z,4.22
2023-03-31T23:37:11.394Z,2.38
2023-03-31T23:39:39.096Z,2.40
2023-03-31T23:42:07.633Z,2.55
2023-03-31T23:44:37.210Z,1.60
2023-03-31T23:47:05.663Z,1.50
2023-03-31T23:49:32.796Z,1.80
2023-03-31T23:51:59.847Z,1.55
2023-03-31T23:54:27.351Z,1.65
2023-03-31T23:56:54.554Z,2.08
2023-03-31T23:59:21.712Z,1.77
